createdAt,value
2023-01-07T01:14:15.844Z,49.90
2023-01-07T01:20:50.980Z,49.90
2023-01-07T01:27:25.288Z,49.80
2023-01-07T01:30:27.310Z,50.40
2023-01-07T01:33:29.978Z,50.30
2023-01-07T01:54:28.036Z,49.50
2023-01-07T01:57:34.610Z,50.30
2023-01-07T02:00:37.546Z,50.10
2023-01-07T02:03:41.323Z,50.10
2023-01-07T02:10:16.045Z,50.10
2023-01-07T02:13:32.110Z,50.00
2023-01-07T02:16:39.506Z,49.90
2023-01-07T02:20:05.255Z,50.00
2023-01-07T02:23:33.579Z,49.90
2023-01-07T02:27:00.155Z,49.90
2023-01-07T02:30:28.271Z,49.80
2023-01-07T02:33:41.823Z,49.80
2023-01-07T02:36:49.449Z,49.70
2023-01-07T02:39:58.824Z,49.50
2023-01-07T02:43:09.795Z,50.20
2023-01-07T02:46:19.340Z,49.60
2023-01-07T02:49:21.410Z,49.60
2023-01-07T02:52:26.014Z,49.80
2023-01-07T02:55:37.052Z,49.70
2023-01-07T02:58:55.386Z,49.50
2023-01-07T03:02:13.904Z,49.50
2023-01-07T03:05:30.289Z,49.50
2023-01-07T03:08:42.404Z,49.20
2023-01-07T03:11:52.992Z,49.30
2023-01-07T03:14:59.871Z,49.40
2023-01-07T03:18:05.652Z,49.50
2023-01-07T03:21:12.099Z,49.30
2023-01-07T03:24:15.407Z,49.30
2023-01-07T03:27:20.093Z,49.30
2023-01-07T03:30:24.088Z,49.40
2023-01-07T03:33:34.604Z,49.20
2023-01-07T03:36:41.363Z,49.30
2023-01-07T03:39:44.628Z,49.30
2023-01-07T03:42:48.306Z,49.20
2023-01-07T03:45:57.077Z,49.10
2023-01-07T03:48:59.487Z,49.20
2023-01-07T03:52:02.482Z,49.30
2023-01-07T03:55:05.148Z,49.20
2023-01-07T03:58:07.324Z,49.20
2023-01-07T04:01:09.175Z,49.20
2023-01-07T04:04:11.322Z,49.10
2023-01-07T04:07:13.444Z,49.20
2023-01-07T04:10:15.144Z,49.00
2023-01-07T04:13:16.825Z,49.10
2023-01-07T04:16:20.833Z,49.10
2023-01-07T04:19:23.547Z,48.90
2023-01-07T04:22:26.103Z,48.90
2023-01-07T04:25:27.910Z,49.10
2023-01-07T04:28:30.406Z,49.10
2023-01-07T04:31:32.821Z,49.10
2023-01-07T04:34:34.932Z,49.00
2023-01-07T04:37:38.323Z,48.90
2023-01-07T04:40:40.322Z,49.60
2023-01-07T04:43:41.716Z,49.00
2023-01-07T04:46:43.318Z,49.30
2023-01-07T04:49:44.662Z,48.90
2023-01-07T04:52:47.208Z,49.30
2023-01-07T04:55:48.725Z,49.20
2023-01-07T04:58:51.112Z,49.10
2023-01-07T05:01:53.826Z,49.00
2023-01-07T05:04:57.107Z,48.90
2023-01-07T05:07:59.189Z,49.00
2023-01-07T05:11:04.438Z,48.90
2023-01-07T05:14:07.386Z,48.90
2023-01-07T05:17:08.719Z,48.90
2023-01-07T05:20:13.512Z,49.20
2023-01-07T05:23:15.685Z,48.90
2023-01-07T05:26:19.033Z,49.10
2023-01-07T05:29:20.323Z,48.90
2023-01-07T05:32:23.242Z,49.30
2023-01-07T05:35:25.432Z,49.10
2023-01-07T05:38:27.565Z,49.00
2023-01-07T05:41:29.145Z,49.10
2023-01-07T05:44:30.736Z,48.90
2023-01-07T05:47:32.085Z,49.00
2023-01-07T05:50:33.480Z,49.00
2023-01-07T05:53:35.596Z,48.90
2023-01-07T05:56:36.998Z,49.20
2023-01-07T05:59:38.473Z,49.00
2023-01-07T06:02:39.901Z,48.90
2023-01-07T06:05:41.497Z,49.20
2023-01-07T06:08:43.511Z,49.00
2023-01-07T06:11:44.907Z,49.00
2023-01-07T06:14:46.344Z,49.20
2023-01-07T06:17:47.586Z,49.00
2023-01-07T06:20:50.545Z,49.50
2023-01-07T06:23:52.533Z,49.20
2023-01-07T06:26:53.939Z,49.10
2023-01-07T06:29:55.431Z,49.20
2023-01-07T06:32:56.854Z,49.20
2023-01-07T06:35:58.208Z,49.40
2023-01-07T06:39:00.176Z,49.20
2023-01-07T06:42:01.550Z,49.80
2023-01-07T06:45:03.353Z,49.20
2023-01-07T06:48:04.996Z,49.10
2023-01-07T06:51:06.441Z,49.10
2023-01-07T06:54:08.380Z,49.10
2023-01-07T06:57:09.671Z,49.30
2023-01-07T07:00:12.010Z,49.50
2023-01-07T07:03:13.665Z,49.20
2023-01-07T07:06:15.087Z,49.20
2023-01-07T07:09:17.117Z,49.10
2023-01-07T07:12:18.955Z,49.20
2023-01-07T07:15:20.345Z,49.10
2023-01-07T07:18:21.759Z,49.10
2023-01-07T07:21:23.171Z,49.10
2023-01-07T07:24:25.159Z,48.90
2023-01-07T07:27:26.582Z,49.10
2023-01-07T07:30:46.640Z,49.10
2023-01-07T07:33:49.950Z,49.20
2023-01-07T07:36:51.351Z,49.10
2023-01-07T07:39:53.329Z,49.20
2023-01-07T07:43:11.083Z,49.20
2023-01-07T07:46:14.303Z,49.20
2023-01-07T07:49:15.763Z,49.10
2023-01-07T07:52:17.124Z,49.20
2023-01-07T07:55:20.742Z,49.50
2023-01-07T07:58:27.708Z,49.30
2023-01-07T08:01:29.251Z,49.30
2023-01-07T08:04:33.755Z,49.40
2023-01-07T08:07:37.585Z,49.20
2023-01-07T08:10:39.797Z,49.40
2023-01-07T08:13:41.270Z,49.40
2023-01-07T08:16:42.517Z,49.50
2023-01-07T08:19:43.998Z,49.60
2023-01-07T08:22:45.395Z,49.60
2023-01-07T08:25:47.476Z,49.50
2023-01-07T08:28:48.882Z,49.80
2023-01-07T08:31:51.248Z,49.70
2023-01-07T08:34:54.314Z,49.70
2023-01-07T08:38:01.003Z,49.80
2023-01-07T08:41:02.985Z,49.80
2023-01-07T08:44:04.900Z,50.00
2023-01-07T08:47:06.291Z,50.00
2023-01-07T08:50:08.143Z,49.80
2023-01-07T08:53:09.519Z,49.90
2023-01-07T08:56:11.456Z,50.10
2023-01-07T08:59:12.679Z,50.40
2023-01-07T09:02:15.757Z,50.40
2023-01-07T09:05:17.565Z,50.10
2023-01-07T09:08:19.097Z,50.20
2023-01-07T09:11:20.906Z,50.50
2023-01-07T09:14:22.158Z,50.60
2023-01-07T09:17:24.330Z,50.80
2023-01-07T09:20:25.908Z,50.40
2023-01-07T09:23:27.189Z,50.40
2023-01-07T09:26:29.193Z,50.60
2023-01-07T09:29:30.982Z,50.50
2023-01-07T09:32:32.393Z,50.80
2023-01-07T09:35:33.973Z,50.90
2023-01-07T09:38:35.783Z,51.00
2023-01-07T09:41:48.675Z,51.10
2023-01-07T09:45:03.738Z,51.30
2023-01-07T09:48:11.528Z,51.30
2023-01-07T09:51:18.777Z,51.80
2023-01-07T09:54:28.007Z,51.50
2023-01-07T09:57:30.072Z,51.40
2023-01-07T10:00:34.181Z,51.50
2023-01-07T10:03:49.479Z,51.40
2023-01-07T10:06:59.170Z,51.40
2023-01-07T10:10:13.483Z,51.60
2023-01-07T10:13:41.655Z,51.80
2023-01-07T10:16:49.257Z,51.70
2023-01-07T10:19:57.479Z,51.70
2023-01-07T10:23:03.726Z,51.50
2023-01-07T10:26:13.041Z,51.80
2023-01-07T10:29:19.802Z,51.90
2023-01-07T10:32:23.804Z,51.90
2023-01-07T10:35:29.516Z,52.00
2023-01-07T10:38:36.989Z,52.10
2023-01-07T10:41:46.353Z,52.00
2023-01-07T10:45:08.664Z,52.00
2023-01-07T10:48:31.400Z,52.00
2023-01-07T10:51:59.325Z,51.90
2023-01-07T10:55:12.784Z,52.10
2023-01-07T10:58:14.175Z,52.50
2023-01-07T11:01:23.789Z,52.20
2023-01-07T11:04:25.862Z,52.00
2023-01-07T11:07:31.980Z,52.20
2023-01-07T11:10:37.188Z,52.30
2023-01-07T11:13:41.323Z,52.40
2023-01-07T11:16:49.494Z,52.30
2023-01-07T11:19:51.625Z,52.40
2023-01-07T11:22:53.022Z,52.50
2023-01-07T11:25:55.095Z,52.50
2023-01-07T11:28:59.628Z,52.60
2023-01-07T11:32:03.078Z,52.60
2023-01-07T11:35:07.386Z,52.70
2023-01-07T11:38:26.594Z,52.60
2023-01-07T11:41:28.434Z,52.60
2023-01-07T11:44:29.909Z,52.90
2023-01-07T11:47:31.721Z,53.00
2023-01-07T11:50:34.098Z,53.00
2023-01-07T11:53:37.283Z,53.10
2023-01-07T11:56:38.658Z,52.80
2023-01-07T11:59:40.083Z,53.00
2023-01-07T12:02:42.307Z,52.90
2023-01-07T12:05:44.379Z,53.10
2023-01-07T12:09:00.095Z,53.10
2023-01-07T12:12:29.894Z,53.30
2023-01-07T12:15:34.689Z,53.20
2023-01-07T12:18:50.845Z,53.20
2023-01-07T12:22:05.952Z,53.40
2023-01-07T12:25:27.055Z,53.60
2023-01-07T12:28:42.981Z,53.70
2023-01-07T12:31:58.429Z,53.80
2023-01-07T12:35:15.495Z,53.90
2023-01-07T12:38:21.559Z,54.00
2023-01-07T12:41:26.905Z,54.10
2023-01-07T12:44:28.538Z,54.10
2023-01-07T12:47:35.834Z,54.30
2023-01-07T12:50:42.081Z,54.40
2023-01-07T12:53:50.183Z,54.40
2023-01-07T12:56:56.195Z,54.40
2023-01-07T13:00:03.931Z,54.50
2023-01-07T13:03:16.669Z,54.70
2023-01-07T13:06:24.861Z,54.70
2023-01-07T13:09:30.514Z,54.70
2023-01-07T13:12:45.485Z,55.00
2023-01-07T13:15:48.227Z,55.00
2023-01-07T13:18:49.795Z,55.00
2023-01-07T13:21:51.781Z,55.30
2023-01-07T13:25:11.918Z,55.50
2023-01-07T13:28:32.419Z,55.20
2023-01-07T13:31:58.421Z,55.40
2023-01-07T13:35:18.755Z,55.30
2023-01-07T13:38:38.041Z,55.70
2023-01-07T13:41:52.360Z,55.70
2023-01-07T13:45:01.412Z,55.70
2023-01-07T13:48:05.547Z,55.70
2023-01-07T13:51:08.811Z,55.70
2023-01-07T13:54:12.024Z,55.80
2023-01-07T13:57:38.691Z,55.90
2023-01-07T14:00:44.112Z,56.00
2023-01-07T14:03:48.806Z,55.80
2023-01-07T14:06:51.034Z,55.80
2023-01-07T14:09:55.919Z,55.70
2023-01-07T14:13:11.384Z,55.80
2023-01-07T14:16:17.868Z,55.80
2023-01-07T14:19:30.107Z,55.70
2023-01-07T14:22:40.616Z,55.40
2023-01-07T14:25:55.240Z,55.40
2023-01-07T14:29:26.618Z,55.40
2023-01-07T14:32:32.341Z,55.30
2023-01-07T14:35:35.769Z,55.00
2023-01-07T14:38:57.108Z,54.80
2023-01-07T14:42:24.042Z,54.30
2023-01-07T14:45:54.092Z,53.90
2023-01-07T14:49:22.213Z,53.60
2023-01-07T14:52:53.533Z,53.70
2023-01-07T14:56:13.259Z,53.30
2023-01-07T14:59:33.150Z,53.20
2023-01-07T15:03:07.193Z,53.10
2023-01-07T15:06:18.970Z,53.00
2023-01-07T15:09:38.456Z,52.90
2023-01-07T15:12:57.836Z,53.00
2023-01-07T15:16:01.915Z,52.80
2023-01-07T15:19:03.470Z,52.70
2023-01-07T15:22:12.763Z,52.70
2023-01-07T15:25:36.936Z,52.90
2023-01-07T15:28:46.747Z,52.70
2023-01-07T15:31:54.223Z,52.70
2023-01-07T15:34:56.282Z,52.80
2023-01-07T15:38:01.987Z,52.80
2023-01-07T15:41:03.865Z,52.70
2023-01-07T15:44:13.051Z,52.80
2023-01-07T15:47:32.006Z,52.70
2023-01-07T15:50:34.256Z,52.60
2023-01-07T15:53:36.340Z,52.70
2023-01-07T15:56:38.844Z,52.50
2023-01-07T15:59:43.839Z,52.40
2023-01-07T16:02:45.898Z,52.30
2023-01-07T16:05:47.596Z,52.30
2023-01-07T16:08:50.538Z,52.20
2023-01-07T16:11:52.366Z,51.90
2023-01-07T16:14:53.800Z,51.90
2023-01-07T16:17:55.927Z,51.70
2023-01-07T16:20:59.729Z,51.80
2023-01-07T16:24:01.955Z,51.70
2023-01-07T16:27:05.394Z,51.70
2023-01-07T16:30:14.377Z,51.50
2023-01-07T16:33:18.484Z,51.40
2023-01-07T16:36:22.899Z,51.50
2023-01-07T16:39:28.879Z,51.40
2023-01-07T16:42:30.638Z,51.30
2023-01-07T16:45:34.376Z,51.30
2023-01-07T16:48:35.895Z,51.10
2023-01-07T16:51:38.043Z,51.00
2023-01-07T16:54:41.793Z,51.10
2023-01-07T16:57:45.071Z,50.80
2023-01-07T17:00:49.249Z,51.00
2023-01-07T17:03:54.974Z,50.70
2023-01-07T17:06:59.849Z,50.60
2023-01-07T17:10:01.936Z,50.50
2023-01-07T17:13:05.867Z,50.40
2023-01-07T17:16:20.643Z,50.50
2023-01-07T17:19:24.222Z,50.30
2023-01-07T17:22:28.664Z,50.30
2023-01-07T17:25:31.077Z,50.30
2023-01-07T17:28:36.786Z,50.30
2023-01-07T17:31:39.285Z,50.30
2023-01-07T17:34:40.693Z,50.30
2023-01-07T17:37:42.232Z,50.10
2023-01-07T17:40:45.279Z,50.20
2023-01-07T17:43:46.585Z,49.90
2023-01-07T17:46:48.123Z,50.10
2023-01-07T17:49:49.405Z,49.70
2023-01-07T17:52:53.924Z,50.20
2023-01-07T17:55:56.331Z,49.90
2023-01-07T17:58:57.905Z,49.80
2023-01-07T18:01:59.854Z,49.80
2023-01-07T18:05:01.348Z,49.70
2023-01-07T18:08:02.868Z,49.50
2023-01-07T18:11:18.515Z,49.50
2023-01-07T18:14:20.058Z,49.80
2023-01-07T18:17:21.618Z,49.60
2023-01-07T18:20:23.072Z,49.30
2023-01-07T18:23:24.919Z,49.10
2023-01-07T18:26:27.003Z,49.10
2023-01-07T18:29:28.555Z,49.10
2023-01-07T18:32:29.846Z,48.90
2023-01-07T18:35:31.274Z,49.20
2023-01-07T18:38:32.708Z,49.10
2023-01-07T18:41:34.883Z,49.20
2023-01-07T18:44:36.463Z,48.90
2023-01-07T18:47:37.764Z,48.90
2023-01-07T18:50:40.661Z,49.10
2023-01-07T18:53:42.135Z,48.90
2023-01-07T18:56:45.083Z,48.80
2023-01-07T18:59:46.609Z,49.00
2023-01-07T19:02:48.173Z,48.70
2023-01-07T19:05:49.553Z,49.20
2023-01-07T19:08:50.964Z,48.60
2023-01-07T19:11:52.975Z,48.40
2023-01-07T19:14:54.390Z,48.40
2023-01-07T19:17:55.820Z,48.50
2023-01-07T19:21:01.628Z,48.20
2023-01-07T19:24:03.768Z,48.10
2023-01-07T19:27:06.713Z,48.10
2023-01-07T19:30:09.351Z,48.10
2023-01-07T19:33:10.738Z,48.10
2023-01-07T19:36:12.956Z,48.10
2023-01-07T19:39:16.413Z,47.90
2023-01-07T19:42:18.397Z,47.80
2023-01-07T19:45:19.812Z,47.90
2023-01-07T19:48:21.286Z,48.00
2023-01-07T19:51:22.571Z,47.70
2023-01-07T19:54:23.985Z,48.30
2023-01-07T19:57:26.124Z,47.90
2023-01-07T20:00:27.743Z,47.80
2023-01-07T20:03:30.909Z,47.70
2023-01-07T20:06:34.622Z,47.70
2023-01-07T20:09:36.050Z,47.70
2023-01-07T20:12:38.404Z,47.70
2023-01-07T20:15:39.893Z,47.70
2023-01-07T20:18:42.142Z,47.50
2023-01-07T20:21:43.597Z,47.90
2023-01-07T20:24:45.934Z,47.60
2023-01-07T20:27:48.001Z,48.60
2023-01-07T20:30:49.538Z,47.70
2023-01-07T20:33:50.857Z,47.70
2023-01-07T20:36:53.025Z,47.80
2023-01-07T20:39:54.443Z,47.70
2023-01-07T20:42:56.410Z,47.70
2023-01-07T20:45:58.867Z,47.80
2023-01-07T20:49:00.737Z,47.60
2023-01-07T20:52:02.189Z,47.50
2023-01-07T20:55:04.482Z,47.50
2023-01-07T20:58:06.583Z,47.30
2023-01-07T21:01:11.051Z,47.50
2023-01-07T21:04:12.824Z,47.20
2023-01-07T21:07:14.202Z,47.30
2023-01-07T21:10:18.047Z,47.40
2023-01-07T21:13:20.519Z,47.10
2023-01-07T21:16:22.931Z,47.10
2023-01-07T21:19:24.301Z,47.20
2023-01-07T21:22:25.694Z,47.10
2023-01-07T21:25:27.149Z,47.20
2023-01-07T21:28:29.130Z,47.00
2023-01-07T21:31:30.744Z,47.30
2023-01-07T21:34:32.169Z,47.10
2023-01-07T21:37:33.629Z,47.10
2023-01-07T21:40:36.546Z,47.00
2023-01-07T21:43:39.586Z,47.50
2023-01-07T21:46:41.066Z,47.10
2023-01-07T21:49:42.339Z,47.10
2023-01-07T21:52:43.778Z,47.40
2023-01-07T21:55:45.157Z,47.20
2023-01-07T21:58:47.850Z,47.30
2023-01-07T22:01:49.578Z,47.20
2023-01-07T22:04:51.102Z,47.00
2023-01-07T22:07:52.460Z,47.00
2023-01-07T22:10:54.002Z,47.00
2023-01-07T22:13:56.952Z,47.00
2023-01-07T22:16:58.409Z,47.40
2023-01-07T22:19:59.664Z,47.10
2023-01-07T22:23:01.170Z,47.30
2023-01-07T22:26:03.418Z,47.10
2023-01-07T22:29:07.157Z,47.00
2023-01-07T22:32:08.689Z,46.90
2023-01-07T22:35:10.025Z,47.00
2023-01-07T22:38:13.699Z,47.20
2023-01-07T22:41:15.192Z,46.90
2023-01-07T22:44:21.168Z,47.00
2023-01-07T22:47:26.139Z,47.20
2023-01-07T22:50:27.604Z,46.90
2023-01-07T22:53:29.116Z,47.00
2023-01-07T22:56:31.759Z,47.10
2023-01-07T22:59:34.847Z,46.90
2023-01-07T23:02:36.435Z,46.90
2023-01-07T23:05:39.024Z,46.80
2023-01-07T23:08:41.127Z,46.80
2023-01-07T23:11:51.058Z,46.80
2023-01-07T23:14:53.099Z,46.70
2023-01-07T23:17:54.594Z,46.70
2023-01-07T23:20:56.275Z,46.60
2023-01-07T23:23:58.116Z,46.80
2023-01-07T23:26:59.536Z,46.70
2023-01-07T23:30:01.584Z,46.60
2023-01-07T23:33:03.470Z,46.50
2023-01-07T23:36:07.605Z,46.40
2023-01-07T23:39:08.985Z,46.40
2023-01-07T23:42:10.428Z,46.30
2023-01-07T23:45:12.391Z,46.40
2023-01-07T23:48:13.815Z,46.60
2023-01-07T23:51:17.510Z,46.50
2023-01-07T23:54:19.067Z,46.30
2023-01-07T23:57:20.316Z,46.50
